Time;durP1;ratioP1;P1;durP2;ratioP2;P2;SDS_P1;SDS_P2;PMS_P1;PMS_P2;Temp;Humidity;BMP_temperature;BMP_pressure;BME280_temperature;BME280_humidity;BME280_pressure;Samples;Min_cycle;Max_cycle;Signal;HPM_P1;HPM_P2
2021/01/25 00:02:50;;;;;;;50.83;26.52;;;;;;;0.04;100.00;99750.03;6271130;28;20155;-71
2021/01/25 00:05:51;;;;;;;49.22;26.70;;;;;;;0.25;100.00;99750.31;6269852;28;20049;-71
2021/01/25 00:08:51;;;;;;;51.85;26.85;;;;;;;0.06;100.00;99754.28;6266067;28;20416;-71
2021/01/25 00:11:52;;;;;;;51.25;26.20;;;;;;;0.10;100.00;99755.06;6275840;28;20131;-71
2021/01/25 00:14:55;;;;;;;55.63;28.92;;;;;;;0.02;100.00;99754.41;6275938;28;20101;-71
2021/01/25 00:17:55;;;;;;;60.03;30.45;;;;;;;0.01;100.00;99757.88;6292914;28;20053;-71
2021/01/25 00:20:56;;;;;;;61.53;31.13;;;;;;;-0.01;100.00;99756.16;6280455;28;20106;-71
2021/01/25 00:23:58;;;;;;;62.55;31.65;;;;;;;-0.01;100.00;99761.31;6273819;28;20493;-71
2021/01/25 00:26:59;;;;;;;61.35;32.35;;;;;;;-0.02;100.00;99758.78;6275680;28;20061;-71
2021/01/25 00:30:01;;;;;;;64.82;30.73;;;;;;;-0.02;100.00;99759.63;6274351;28;20579;-71
2021/01/25 00:33:02;;;;;;;61.10;30.73;;;;;;;-0.06;100.00;99763.19;6276377;28;20045;-71
2021/01/25 00:36:03;;;;;;;67.43;33.60;;;;;;;-0.02;100.00;99759.63;6275132;28;20060;-71
2021/01/25 00:39:04;;;;;;;69.40;33.70;;;;;;;-0.06;100.00;99762.34;6275122;28;20076;-72
2021/01/25 00:42:05;;;;;;;70.13;34.80;;;;;;;-0.07;100.00;99769.25;6275409;28;20042;-71
2021/01/25 00:45:08;;;;;;;72.82;35.33;;;;;;;-0.02;100.00;99767.38;6275048;28;20044;-71
2021/01/25 00:48:09;;;;;;;66.78;34.40;;;;;;;-0.09;100.00;99773.63;6275942;28;20057;-71
2021/01/25 00:51:10;;;;;;;69.10;32.60;;;;;;;-0.12;100.00;99773.69;6274887;28;20049;-71
2021/01/25 00:54:10;;;;;;;74.88;35.63;;;;;;;-0.12;100.00;99778.00;6274926;28;20544;-71
2021/01/25 00:57:11;;;;;;;76.22;35.47;;;;;;;-0.14;100.00;99777.16;6274638;28;20056;-72
2021/01/25 01:00:14;;;;;;;67.35;33.35;;;;;;;-0.15;100.00;99778.06;6268364;28;20045;-71
2021/01/25 01:03:15;;;;;;;72.30;34.90;;;;;;;-0.22;100.00;99779.13;6250063;28;20092;-71
2021/01/25 01:06:16;;;;;;;71.10;33.03;;;;;;;-0.26;100.00;99776.59;6249591;28;20057;-71
2021/01/25 01:09:17;;;;;;;73.25;36.30;;;;;;;-0.32;100.00;99781.06;6260806;28;20111;-71
2021/01/25 01:12:18;;;;;;;73.03;35.28;;;;;;;-0.34;100.00;99785.41;6274563;28;20068;-71
2021/01/25 01:15:20;;;;;;;77.70;35.80;;;;;;;-0.36;100.00;99789.78;6274289;28;20083;-71
2021/01/25 01:18:21;;;;;;;70.57;34.92;;;;;;;-0.37;100.00;99788.06;6274847;28;20045;-71
2021/01/25 01:21:21;;;;;;;80.82;36.97;;;;;;;-0.37;100.00;99788.06;6274153;28;20425;-71
2021/01/25 01:24:22;;;;;;;77.93;36.72;;;;;;;-0.39;100.00;99795.84;6274022;28;20052;-71
2021/01/25 01:27:23;;;;;;;79.22;36.80;;;;;;;-0.42;100.00;99803.66;6274069;28;20053;-71
2021/01/25 01:30:25;;;;;;;72.28;36.10;;;;;;;-0.45;100.00;99797.75;6263812;28;20045;-71
2021/01/25 01:33:26;;;;;;;79.30;35.80;;;;;;;-0.43;100.00;99798.53;6249236;28;20483;-71
2021/01/25 01:36:27;;;;;;;75.28;37.95;;;;;;;-0.42;100.00;99793.34;6248978;28;20049;-71
2021/01/25 01:39:28;;;;;;;77.43;37.17;;;;;;;-0.43;100.00;99794.22;6248877;28;20049;-71
2021/01/25 01:42:29;;;;;;;73.35;34.85;;;;;;;-0.53;100.00;99793.59;6248982;28;20060;-71
2021/01/25 01:45:30;;;;;;;78.65;38.13;;;;;;;-0.53;100.00;99801.34;6249138;28;20061;-71
2021/01/25 01:48:32;;;;;;;88.47;38.75;;;;;;;-0.55;100.00;99795.34;6261349;28;20048;-71
2021/01/25 01:51:33;;;;;;;87.15;41.28;;;;;;;-0.61;100.00;99790.34;6273316;28;20045;-71
2021/01/25 01:54:34;;;;;;;83.78;40.05;;;;;;;-0.61;100.00;99800.66;6273608;28;20524;-71
2021/01/25 01:57:35;;;;;;;82.50;38.40;;;;;;;-0.67;100.00;99795.66;6273349;28;20045;-71
2021/01/25 02:00:37;;;;;;;89.13;39.88;;;;;;;-0.69;100.00;99797.41;6259397;28;20079;-71
2021/01/25 02:03:38;;;;;;;92.22;40.38;;;;;;;-0.70;100.00;99800.03;6248756;28;20045;-71
2021/01/25 02:06:39;;;;;;;97.65;43.08;;;;;;;-0.71;100.00;99799.19;6248317;28;20501;-71
2021/01/25 02:09:44;;;;;;;97.50;41.95;;;;;;;-0.71;100.00;99800.94;6248328;28;20061;-71
2021/01/25 02:12:48;;;;;;;87.65;40.10;;;;;;;-0.75;100.00;99802.72;6248339;28;20045;-71
2021/01/25 02:15:51;;;;;;;84.63;40.72;;;;;;;-0.83;100.00;99797.72;6248238;28;20108;-71
2021/01/25 02:18:51;;;;;;;81.53;37.58;;;;;;;-0.92;100.00;99802.22;6288591;28;20052;-71
2021/01/25 02:21:59;;;;;;;93.50;40.42;;;;;;;-0.98;100.00;99795.50;6297929;28;20060;-72
2021/01/25 02:25:03;;;;;;;91.03;40.50;;;;;;;-0.99;100.00;99796.38;6297487;28;20079;-72
2021/01/25 02:28:05;;;;;;;91.57;42.10;;;;;;;-0.95;100.00;99791.97;6297568;28;20056;-72
2021/01/25 02:31:09;;;;;;;97.78;43.38;;;;;;;-0.93;100.00;99788.50;6256744;28;20046;-72
2021/01/25 02:34:12;;;;;;;97.18;41.92;;;;;;;-0.89;100.00;99791.88;6248046;28;20090;-72
2021/01/25 02:37:13;;;;;;;93.78;43.30;;;;;;;-0.92;100.00;99797.91;6253828;28;20045;-71
2021/01/25 02:40:16;;;;;;;96.07;41.65;;;;;;;-0.97;100.00;99791.19;6272238;28;20044;-71
2021/01/25 02:43:18;;;;;;;91.95;41.53;;;;;;;-1.06;100.00;99798.22;6272423;28;20052;-71
2021/01/25 02:46:20;;;;;;;94.80;42.00;;;;;;;-1.09;100.00;99789.69;6271956;28;20053;-71
2021/01/25 02:49:21;;;;;;;92.93;41.20;;;;;;;-1.11;100.00;99792.31;6271891;28;20064;-73
2021/01/25 02:52:22;;;;;;;95.10;40.83;;;;;;;-1.15;100.00;99798.41;6272115;28;20049;-72
2021/01/25 02:55:23;;;;;;;89.45;41.67;;;;;;;-1.18;100.00;99795.91;6272122;28;20129;-72
2021/01/25 02:58:25;;;;;;;90.95;41.08;;;;;;;-1.30;100.00;99799.59;6271706;28;20049;-71
2021/01/25 03:01:26;;;;;;;89.75;41.10;;;;;;;-1.29;100.00;99803.00;6246983;28;20414;-71
2021/01/25 03:04:29;;;;;;;87.22;39.38;;;;;;;-1.32;100.00;99801.34;6247166;28;20045;-71
2021/01/25 03:07:30;;;;;;;87.60;40.50;;;;;;;-1.34;100.00;99804.84;6252616;28;20703;-71
2021/01/25 03:10:31;;;;;;;95.40;41.58;;;;;;;-1.35;100.00;99809.13;6271522;28;20057;-71
2021/01/25 03:13:33;;;;;;;95.22;41.83;;;;;;;-1.29;100.00;99805.59;6271558;28;20083;-71
2021/01/25 03:16:33;;;;;;;100.57;43.22;;;;;;;-1.22;100.00;99804.59;6271585;28;20512;-71
2021/01/25 03:19:34;;;;;;;97.88;41.50;;;;;;;-1.22;100.00;99799.44;6271305;28;20045;-71
2021/01/25 03:22:35;;;;;;;99.78;44.35;;;;;;;-1.26;100.00;99797.81;6271950;28;20045;-71
2021/01/25 03:25:36;;;;;;;102.00;44.55;;;;;;;-1.21;100.00;99806.28;6271196;28;20049;-71
2021/01/25 03:28:37;;;;;;;102.75;44.88;;;;;;;-1.18;100.00;99808.81;6267327;28;20045;-71
2021/01/25 03:31:39;;;;;;;100.97;43.53;;;;;;;-1.19;100.00;99807.09;6246616;28;20045;-71
2021/01/25 03:34:40;;;;;;;99.70;43.70;;;;;;;-1.21;100.00;99813.16;6246164;28;20422;-71
2021/01/25 03:37:40;;;;;;;103.75;43.25;;;;;;;-1.23;100.00;99818.34;6249674;28;20053;-72
2021/01/25 03:40:41;;;;;;;93.05;42.50;;;;;;;-1.29;100.00;99814.16;6295804;28;20497;-71
2021/01/25 03:43:43;;;;;;;93.60;41.72;;;;;;;-1.33;100.00;99809.09;6295992;28;20079;-71
2021/01/25 03:46:45;;;;;;;99.93;43.45;;;;;;;-1.29;100.00;99814.16;6286535;28;20049;-71
2021/01/25 03:49:46;;;;;;;89.97;41.80;;;;;;;-1.32;100.00;99808.22;6270819;28;20057;-71
2021/01/25 03:52:47;;;;;;;89.88;41.72;;;;;;;-1.31;100.00;99810.78;6271110;28;20064;-71
2021/01/25 03:55:48;;;;;;;99.32;41.58;;;;;;;-1.30;100.00;99815.06;6270952;28;20053;-71
2021/01/25 03:58:50;;;;;;;100.95;43.42;;;;;;;-1.31;100.00;99815.94;6269642;28;20056;-71
2021/01/25 04:01:51;;;;;;;91.38;41.63;;;;;;;-1.25;100.00;99822.69;6271217;28;20045;-71
2021/01/25 04:04:52;;;;;;;101.75;43.58;;;;;;;-1.24;100.00;99828.69;6271969;28;20057;-71
2021/01/25 04:07:52;;;;;;;94.55;41.15;;;;;;;-1.21;100.00;99823.47;6258240;28;20081;-72
2021/01/25 04:10:53;;;;;;;94.85;43.92;;;;;;;-1.22;100.00;99826.94;6245907;28;20053;-71
2021/01/25 04:13:55;;;;;;;108.10;42.50;;;;;;;-1.24;100.00;99833.84;6245836;28;20080;-72
2021/01/25 04:16:56;;;;;;;105.72;44.28;;;;;;;-1.28;100.00;99835.63;6246048;28;20054;-71
2021/01/25 04:19:56;;;;;;;90.93;41.60;;;;;;;-1.28;100.00;99827.91;6245641;28;20502;-71
2021/01/25 04:22:57;;;;;;;92.13;42.00;;;;;;;-1.31;100.00;99821.09;6246183;28;20045;-71
2021/01/25 04:25:58;;;;;;;95.07;42.53;;;;;;;-1.33;100.00;99833.13;6245660;28;20532;-71
2021/01/25 04:29:00;;;;;;;100.13;40.03;;;;;;;-1.32;100.00;99837.44;6245830;28;20532;-72
2021/01/25 04:32:01;;;;;;;97.65;41.38;;;;;;;-1.36;100.00;99837.53;6270921;28;20052;-71
2021/01/25 04:35:02;;;;;;;101.22;43.60;;;;;;;-1.40;100.00;99829.00;6270789;28;20505;-71
2021/01/25 04:38:03;;;;;;;99.43;41.05;;;;;;;-1.42;100.00;99825.59;6252937;28;20094;-71
2021/01/25 04:41:04;;;;;;;101.07;42.78;;;;;;;-1.38;100.00;99834.13;6270231;28;20052;-71
2021/01/25 04:44:06;;;;;;;89.70;39.05;;;;;;;-1.40;100.00;99839.31;6270532;28;20049;-71
2021/01/25 04:47:09;;;;;;;98.82;40.90;;;;;;;-1.44;100.00;99829.09;6270347;28;20059;-71
2021/01/25 04:50:10;;;;;;;86.28;39.25;;;;;;;-1.42;100.00;99837.63;6270205;28;20055;-71
2021/01/25 04:53:11;;;;;;;96.88;40.63;;;;;;;-1.44;100.00;99832.50;6270500;28;20633;-72
2021/01/25 04:56:13;;;;;;;94.75;39.13;;;;;;;-1.45;100.00;99832.53;6273044;28;20131;-71
2021/01/25 04:59:15;;;;;;;89.88;41.25;;;;;;;-1.47;100.00;99836.88;6249612;28;20115;-72
2021/01/25 05:02:17;;;;;;;93.95;41.67;;;;;;;-1.49;100.00;99839.50;6250238;28;20045;-72
2021/01/25 05:05:18;;;;;;;92.22;39.22;;;;;;;-1.51;100.00;99833.50;6249931;28;20095;-71
2021/01/25 05:08:19;;;;;;;96.70;41.95;;;;;;;-1.54;100.00;99838.72;6250014;28;20307;-72
2021/01/25 05:11:20;;;;;;;92.18;40.88;;;;;;;-1.60;100.00;99844.81;6249621;28;20053;-72
2021/01/25 05:14:22;;;;;;;93.63;41.80;;;;;;;-1.64;100.00;99850.06;6249430;28;20136;-71
2021/01/25 05:17:25;;;;;;;94.13;38.60;;;;;;;-1.67;100.00;99855.28;6249581;28;20049;-72
2021/01/25 05:20:27;;;;;;;90.40;39.47;;;;;;;-1.70;100.00;99858.75;6249237;28;20054;-72
2021/01/25 05:23:37;;;;;;;93.45;40.67;;;;;;;-1.72;100.00;99857.94;6271937;28;20060;-72
2021/01/25 05:26:50;;;;;;;96.43;38.95;;;;;;;-1.79;100.00;99862.31;6258304;28;20498;-72
2021/01/25 05:29:53;;;;;;;86.78;39.25;;;;;;;-1.78;100.00;99863.19;6257454;28;20052;-72
2021/01/25 05:32:55;;;;;;;91.88;40.75;;;;;;;-1.81;100.00;99864.09;6271860;28;20041;-71
2021/01/25 05:35:56;;;;;;;90.68;40.50;;;;;;;-1.81;100.00;99860.66;6271486;28;20072;-71
2021/01/25 05:38:57;;;;;;;101.28;41.55;;;;;;;-1.83;100.00;99858.09;6273537;28;20044;-72
2021/01/25 05:41:59;;;;;;;90.70;38.35;;;;;;;-1.84;100.00;99864.13;6274047;28;20498;-70
2021/01/25 05:45:05;;;;;;;93.53;39.55;;;;;;;-1.85;100.00;99869.31;6271291;28;20049;-71
2021/01/25 05:48:07;;;;;;;91.50;39.60;;;;;;;-1.85;100.00;99862.44;6274808;28;20063;-71
2021/01/25 05:51:14;;;;;;;90.75;40.38;;;;;;;-1.83;100.00;99877.84;6273271;28;20041;-71
2021/01/25 05:54:15;;;;;;;95.75;40.97;;;;;;;-1.85;100.00;99874.47;6268558;28;20461;-71
2021/01/25 05:57:15;;;;;;;88.60;39.25;;;;;;;-1.82;100.00;99872.69;6248655;28;20057;-71
2021/01/25 06:00:18;;;;;;;89.55;39.85;;;;;;;-1.79;100.00;99875.19;6248202;28;20049;-71
2021/01/25 06:03:19;;;;;;;91.32;38.75;;;;;;;-1.79;100.00;99875.19;6248737;28;20056;-71
2021/01/25 06:06:24;;;;;;;84.40;37.65;;;;;;;-1.85;100.00;99874.47;6268337;28;20453;-71
2021/01/25 06:09:29;;;;;;;87.18;37.15;;;;;;;-1.93;100.00;99886.63;6272912;28;20044;-71
2021/01/25 06:12:38;;;;;;;77.85;35.55;;;;;;;-1.93;100.00;99882.31;6273004;28;20056;-71
2021/01/25 06:15:41;;;;;;;91.05;38.55;;;;;;;-1.94;100.00;99887.50;6274014;28;20056;-71
2021/01/25 06:18:45;;;;;;;89.25;39.22;;;;;;;-1.95;100.00;99890.94;6272187;28;20053;-71
2021/01/25 06:21:47;;;;;;;89.47;38.80;;;;;;;-1.94;100.00;99887.50;6272958;28;20052;-71
2021/01/25 06:24:48;;;;;;;89.38;38.72;;;;;;;-1.97;100.00;99897.84;6254306;28;20160;-70
2021/01/25 06:27:53;;;;;;;84.65;39.08;;;;;;;-1.97;100.00;99906.41;6247949;28;20060;-71
2021/01/25 06:30:55;;;;;;;85.53;37.63;;;;;;;-1.98;100.00;99902.13;6247624;28;20103;-71
2021/01/25 06:34:02;;;;;;;87.22;39.05;;;;;;;-1.97;100.00;99910.72;6247946;28;20053;-70
2021/01/25 06:37:03;;;;;;;86.90;37.42;;;;;;;-1.98;100.00;99909.88;6247710;28;20060;-71
2021/01/25 06:40:08;;;;;;;83.70;37.50;;;;;;;-1.96;100.00;99917.56;6256837;28;20561;-71
2021/01/25 06:43:09;;;;;;;91.05;38.13;;;;;;;-1.99;100.00;99918.47;6264631;28;20037;-71
2021/01/25 06:46:16;;;;;;;95.13;39.90;;;;;;;-2.02;100.00;99928.81;6270921;28;20049;-71
2021/01/25 06:49:17;;;;;;;92.45;38.03;;;;;;;-2.00;100.00;99932.19;6272039;28;20075;-72
2021/01/25 06:52:18;;;;;;;90.20;38.20;;;;;;;-2.00;100.00;99936.50;6265455;28;20056;-72
2021/01/25 06:55:19;;;;;;;96.18;39.20;;;;;;;-2.01;100.00;99940.78;6247386;28;20426;-72
2021/01/25 06:58:27;;;;;;;88.95;38.70;;;;;;;-2.05;100.00;99947.69;6247173;28;20053;-71
2021/01/25 07:01:30;;;;;;;87.90;38.90;;;;;;;-2.07;100.00;99948.63;6260963;28;20056;-72
2021/01/25 07:04:31;;;;;;;91.95;37.97;;;;;;;-2.06;100.00;99955.47;6271945;28;20171;-71
2021/01/25 07:07:32;;;;;;;89.63;36.70;;;;;;;-2.12;100.00;99963.28;6293213;28;20111;-72
2021/01/25 07:10:33;;;;;;;86.28;38.08;;;;;;;-2.18;100.00;99958.19;6296212;28;20059;-72
2021/01/25 07:13:36;;;;;;;91.40;40.78;;;;;;;-2.13;100.00;99962.44;6296800;28;20072;-72
2021/01/25 07:16:39;;;;;;;107.22;41.10;;;;;;;-2.11;100.00;99970.97;6295743;28;20059;-72
2021/01/25 07:19:39;;;;;;;87.35;37.85;;;;;;;-2.05;100.00;99970.88;6296462;28;20497;-73
2021/01/25 07:22:41;;;;;;;87.80;38.75;;;;;;;-2.01;100.00;99978.56;6258603;28;20136;-74
2021/01/25 07:25:42;;;;;;;93.40;39.42;;;;;;;-2.01;100.00;99981.97;6247063;28;20053;-71
2021/01/25 07:28:44;;;;;;;92.18;39.75;;;;;;;-1.99;100.00;99989.69;6246456;28;20553;-70
2021/01/25 07:31:46;;;;;;;89.38;37.75;;;;;;;-1.97;100.00;99991.38;6262674;28;20048;-73
2021/01/25 07:34:47;;;;;;;90.38;40.08;;;;;;;-1.97;100.00;99993.09;6296224;28;20055;-71
2021/01/25 07:37:47;;;;;;;90.45;38.65;;;;;;;-1.95;100.00;99994.78;6295938;28;20087;-71
2021/01/25 07:40:50;;;;;;;94.57;39.28;;;;;;;-1.96;100.00;99995.63;6295949;28;20056;-71
2021/01/25 07:43:51;;;;;;;90.20;39.97;;;;;;;-1.94;100.00;100013.66;6295995;28;20059;-71
2021/01/25 07:47:03;;;;;;;94.70;40.55;;;;;;;-1.92;100.00;100004.16;6295883;28;20398;-71
2021/01/25 07:50:07;;;;;;;87.93;40.67;;;;;;;-1.86;100.00;100011.81;6282905;28;20052;-71
2021/01/25 07:53:08;;;;;;;80.28;36.47;;;;;;;-1.79;100.00;100024.56;6246633;28;20047;-71
2021/01/25 07:56:14;;;;;;;87.38;38.95;;;;;;;-1.79;100.00;100018.56;6245932;28;20060;-71
2021/01/25 07:59:16;;;;;;;82.63;39.10;;;;;;;-1.80;100.00;100022.88;6269050;28;20052;-71
2021/01/25 08:02:20;;;;;;;88.25;37.97;;;;;;;-1.71;100.00;100023.63;6270496;28;20417;-71
2021/01/25 08:05:22;;;;;;;78.18;35.42;;;;;;;-1.71;100.00;100024.47;6270421;28;20052;-71
2021/01/25 08:08:25;;;;;;;86.70;35.88;;;;;;;-1.77;100.00;100032.28;6270506;28;20421;-72
2021/01/25 08:11:26;;;;;;;87.32;35.95;;;;;;;-1.74;100.00;100032.22;6270405;28;20049;-71
2021/01/25 08:14:34;;;;;;;87.63;38.47;;;;;;;-1.72;100.00;100029.66;6269455;28;20041;-70
2021/01/25 08:17:38;;;;;;;87.68;38.13;;;;;;;-1.72;100.00;100037.38;6270393;28;20049;-70
2021/01/25 08:20:40;;;;;;;83.18;37.60;;;;;;;-1.65;100.00;100034.66;6250232;28;20438;-71
2021/01/25 08:23:44;;;;;;;77.18;35.13;;;;;;;-1.60;100.00;100047.47;6255628;28;20103;-70
2021/01/25 08:26:45;;;;;;;78.03;35.42;;;;;;;-1.69;100.00;100037.31;6270390;28;20102;-71
2021/01/25 08:29:56;;;;;;;84.00;37.78;;;;;;;-1.66;100.00;100048.41;6272445;28;20127;-70
2021/01/25 08:33:01;;;;;;;72.90;35.20;;;;;;;-1.59;100.00;100056.91;6275594;28;20066;-72
2021/01/25 08:36:04;;;;;;;75.57;33.65;;;;;;;-1.55;100.00;100066.28;6274891;28;20788;-72
2021/01/25 08:39:10;;;;;;;78.10;36.75;;;;;;;-1.49;100.00;100055.91;6275030;28;20055;-71
2021/01/25 08:42:16;;;;;;;87.68;37.97;;;;;;;-1.48;100.00;100065.34;6275278;28;20049;-72
2021/01/25 08:45:26;;;;;;;84.82;38.28;;;;;;;-1.43;100.00;100062.69;6275210;28;20049;-72
2021/01/25 08:48:32;;;;;;;84.22;37.03;;;;;;;-1.07;99.96;100069.81;6264073;28;20041;-72
2021/01/25 08:51:34;;;;;;;80.60;34.85;;;;;;;-1.24;99.13;100068.41;6275621;28;20468;-72
2021/01/25 08:54:38;;;;;;;81.22;35.63;;;;;;;-1.37;99.60;100071.16;6274705;28;20482;-73
2021/01/25 08:57:41;;;;;;;84.55;37.08;;;;;;;-1.33;99.58;100077.13;6274829;28;20063;-73
2021/01/25 09:00:43;;;;;;;90.60;36.88;;;;;;;-1.40;100.00;100078.09;6274364;28;20059;-73
2021/01/25 09:03:45;;;;;;;87.70;38.30;;;;;;;-1.32;100.00;100078.81;6274961;28;20049;-73
2021/01/25 09:06:50;;;;;;;76.60;34.95;;;;;;;-1.35;100.00;100084.88;6274522;28;20064;-72
2021/01/25 09:09:51;;;;;;;91.03;38.50;;;;;;;-1.34;100.00;100085.72;6274283;28;20521;-73
2021/01/25 09:12:52;;;;;;;88.70;37.28;;;;;;;-1.34;100.00;100086.59;6261636;28;20057;-72
2021/01/25 09:15:54;;;;;;;83.20;36.90;;;;;;;-1.31;100.00;100086.53;6261618;28;20072;-77
2021/01/25 09:18:54;;;;;;;85.82;38.33;;;;;;;-1.27;100.00;100087.34;6261915;28;20060;-72
2021/01/25 09:21:55;;;;;;;82.35;35.83;;;;;;;-1.24;100.00;100089.88;6262210;28;20482;-72
2021/01/25 09:24:56;;;;;;;87.07;38.50;;;;;;;-1.20;100.00;100106.97;6261525;28;20041;-73
2021/01/25 09:27:57;;;;;;;74.60;35.05;;;;;;;-1.17;100.00;100109.53;6251664;28;20184;-72
2021/01/25 09:30:59;;;;;;;79.13;34.40;;;;;;;-1.17;100.00;100106.09;6249959;28;20060;-73
2021/01/25 09:34:00;;;;;;;79.57;35.47;;;;;;;-1.11;100.00;100118.88;6249114;28;20418;-73
2021/01/25 09:37:02;;;;;;;82.80;34.80;;;;;;;-1.03;100.00;100117.03;6255903;28;20045;-74
2021/01/25 09:40:04;;;;;;;75.55;34.42;;;;;;;-1.01;99.91;100117.84;6273012;28;20633;-74
2021/01/25 09:43:05;;;;;;;70.95;33.40;;;;;;;-0.97;99.47;100121.25;6274600;28;20049;-73
2021/01/25 09:46:07;;;;;;;70.60;31.50;;;;;;;-0.72;99.09;100119.13;6272274;28;20056;-74
2021/01/25 09:49:08;;;;;;;74.32;32.65;;;;;;;-0.81;98.85;100127.84;6273250;28;20056;-73
2021/01/25 09:52:09;;;;;;;79.05;34.03;;;;;;;-0.79;99.17;100119.19;6273786;28;20524;-73
2021/01/25 09:55:11;;;;;;;73.88;34.10;;;;;;;-0.66;98.93;100132.75;6257279;28;20129;-73
2021/01/25 09:58:12;;;;;;;70.38;33.95;;;;;;;-0.63;98.93;100134.44;6248713;28;20061;-73
2021/01/25 10:01:14;;;;;;;73.18;33.00;;;;;;;-0.41;97.83;100134.88;6248208;28;20057;-73
2021/01/25 10:04:15;;;;;;;67.65;30.38;;;;;;;-0.37;97.86;100137.38;6248836;28;20505;-73
2021/01/25 10:07:16;;;;;;;66.60;30.13;;;;;;;-0.25;97.37;100138.88;6256581;28;20075;-73
2021/01/25 10:10:17;;;;;;;64.38;30.65;;;;;;;-0.17;96.75;100151.66;6272868;28;20096;-73
2021/01/25 10:13:18;;;;;;;62.33;30.33;;;;;;;-0.33;96.12;100146.75;6273208;28;20119;-73
2021/01/25 10:16:20;;;;;;;70.95;31.67;;;;;;;-0.36;96.56;100152.00;6252721;28;20049;-72
2021/01/25 10:19:21;;;;;;;76.72;32.88;;;;;;;-0.36;97.01;100154.59;6254537;28;20098;-72
2021/01/25 10:22:22;;;;;;;70.18;32.67;;;;;;;-0.34;97.36;100152.81;6248064;28;20200;-73
2021/01/25 10:25:24;;;;;;;67.93;31.52;;;;;;;-0.27;96.38;100162.16;6248125;28;20076;-72
2021/01/25 10:28:25;;;;;;;68.43;31.70;;;;;;;-0.28;96.42;100157.00;6247793;28;20042;-72
2021/01/25 10:31:27;;;;;;;67.70;29.33;;;;;;;-0.20;96.52;100162.88;6247836;28;20046;-72
2021/01/25 10:34:28;;;;;;;65.72;32.30;;;;;;;-0.10;96.23;100172.16;6266205;28;20098;-73
2021/01/25 10:37:29;;;;;;;60.88;29.90;;;;;;;0.32;95.64;100168.75;6272654;28;20048;-73
2021/01/25 10:40:30;;;;;;;58.47;29.17;;;;;;;0.47;93.92;100178.78;6272177;28;20451;-72
2021/01/25 10:43:30;;;;;;;70.40;31.67;;;;;;;0.46;94.25;100174.50;6266782;28;20053;-73
2021/01/25 10:46:32;;;;;;;61.38;29.75;;;;;;;0.61;94.58;100181.91;6264365;28;20045;-74
2021/01/25 10:49:33;;;;;;;60.65;30.70;;;;;;;0.87;93.91;100173.59;6270452;28;20049;-72
2021/01/25 10:52:34;;;;;;;68.55;30.58;;;;;;;1.15;93.40;100178.09;6271785;28;20552;-73
2021/01/25 10:55:35;;;;;;;54.22;26.92;;;;;;;1.54;89.63;100178.84;6268305;28;20045;-72
2021/01/25 10:58:37;;;;;;;60.08;29.42;;;;;;;1.49;89.45;100183.28;6265226;28;20417;-75
2021/01/25 11:01:38;;;;;;;55.20;28.63;;;;;;;1.60;90.03;100180.44;6271853;28;20490;-74
2021/01/25 11:04:39;;;;;;;57.72;27.35;;;;;;;1.76;89.56;100189.50;6265454;28;20052;-73
2021/01/25 11:07:40;;;;;;;58.45;26.48;;;;;;;1.62;88.37;100186.44;6271726;28;20103;-73
2021/01/25 11:10:41;;;;;;;52.67;26.90;;;;;;;1.46;90.02;100192.00;6271461;28;20516;-73
2021/01/25 11:13:42;;;;;;;51.40;26.63;;;;;;;1.65;87.88;100192.38;6255417;28;20306;-72
2021/01/25 11:16:44;;;;;;;47.75;25.38;;;;;;;1.75;88.45;100198.16;6261546;28;20091;-73
2021/01/25 11:19:45;;;;;;;53.58;25.55;;;;;;;1.45;88.75;100192.91;6270789;28;20099;-72
2021/01/25 11:22:46;;;;;;;55.42;24.67;;;;;;;1.66;89.33;100206.19;6246914;28;20045;-72
2021/01/25 11:25:46;;;;;;;54.03;25.73;;;;;;;1.79;88.53;100204.97;6246677;28;20120;-73
2021/01/25 11:28:48;;;;;;;52.70;26.08;;;;;;;1.72;89.63;100206.84;6256134;28;20048;-72
2021/01/25 11:31:49;;;;;;;51.78;25.30;;;;;;;1.73;89.01;100213.75;6271620;28;20045;-72
2021/01/25 11:34:51;;;;;;;55.20;26.58;;;;;;;1.72;89.03;100211.19;6271354;28;20048;-74
2021/01/25 11:37:52;;;;;;;54.65;25.60;;;;;;;2.07;87.77;100212.00;6270059;28;20118;-72
2021/01/25 11:40:53;;;;;;;53.47;22.77;;;;;;;2.18;86.59;100213.44;6265400;28;20081;-72
2021/01/25 11:43:54;;;;;;;53.45;24.45;;;;;;;2.09;87.58;100212.81;6273400;28;20041;-72
2021/01/25 11:46:55;;;;;;;56.10;24.95;;;;;;;2.16;87.86;100206.56;6271088;28;20048;-72
2021/01/25 11:49:56;;;;;;;51.95;24.00;;;;;;;1.95;88.37;100211.47;6270666;28;20056;-73
2021/01/25 11:52:57;;;;;;;45.50;22.80;;;;;;;2.15;87.88;100210.06;6266273;28;20478;-72
2021/01/25 11:55:58;;;;;;;50.25;23.52;;;;;;;1.85;88.30;100217.75;6263869;28;20053;-72
2021/01/25 11:58:59;;;;;;;49.53;24.38;;;;;;;1.98;89.04;100215.69;6259035;28;20046;-72
2021/01/25 12:02:01;;;;;;;55.13;24.40;;;;;;;1.78;89.54;100216.22;6266223;28;20060;-72
2021/01/25 12:05:02;;;;;;;60.97;26.15;;;;;;;1.85;89.23;100214.31;6274500;28;20049;-73
2021/01/25 12:08:04;;;;;;;48.47;25.70;;;;;;;1.75;89.50;100224.06;6281355;28;20704;-73
2021/01/25 12:11:06;;;;;;;49.00;24.60;;;;;;;1.93;89.27;100226.19;6275187;28;20119;-72
2021/01/25 12:14:06;;;;;;;55.42;26.23;;;;;;;1.82;89.34;100220.44;6251067;28;20045;-71
2021/01/25 12:17:08;;;;;;;45.15;23.10;;;;;;;1.97;88.03;100220.03;6251039;28;20057;-72
2021/01/25 12:20:10;;;;;;;52.13;25.67;;;;;;;1.88;88.67;100216.84;6258237;28;20155;-72
2021/01/25 12:23:11;;;;;;;44.08;22.85;;;;;;;1.85;88.54;100219.50;6275618;28;20131;-72
2021/01/25 12:26:12;;;;;;;48.55;23.83;;;;;;;2.04;88.26;100218.13;6275440;28;20045;-72
2021/01/25 12:29:13;;;;;;;47.58;23.38;;;;;;;1.97;88.35;100224.38;6275237;28;20098;-73
2021/01/25 12:32:15;;;;;;;49.95;24.60;;;;;;;2.06;88.09;100225.88;6275688;28;20563;-74
2021/01/25 12:35:16;;;;;;;44.78;23.58;;;;;;;2.11;88.50;100232.63;6276393;28;20052;-73
2021/01/25 12:38:17;;;;;;;41.78;21.33;;;;;;;2.42;87.11;100235.22;6274977;28;20076;-72
2021/01/25 12:41:17;;;;;;;34.20;19.75;;;;;;;2.78;85.09;100228.13;6251805;28;20049;-72
2021/01/25 12:44:18;;;;;;;38.85;18.90;;;;;;;2.91;82.58;100226.03;6250330;28;20042;-73
2021/01/25 12:47:20;;;;;;;32.53;15.20;;;;;;;2.70;81.27;100232.69;6250548;28;20073;-72
2021/01/25 12:50:21;;;;;;;31.10;14.82;;;;;;;2.66;81.86;100225.03;6271300;28;20087;-74
2021/01/25 12:53:22;;;;;;;33.22;16.85;;;;;;;2.66;82.16;100230.22;6274941;28;20049;-73
2021/01/25 12:56:23;;;;;;;38.45;16.70;;;;;;;2.62;82.93;100229.47;6271563;28;20051;-73
2021/01/25 12:59:24;;;;;;;37.97;16.67;;;;;;;2.39;83.01;100230.13;6276237;28;20049;-73
2021/01/25 13:02:26;;;;;;;33.47;15.45;;;;;;;2.44;82.85;100237.75;6282364;28;20077;-73
2021/01/25 13:05:27;;;;;;;35.92;17.42;;;;;;;2.50;81.56;100235.03;6267999;28;20042;-73
2021/01/25 13:08:27;;;;;;;29.17;15.32;;;;;;;2.40;82.80;100237.00;6249834;28;20107;-73
2021/01/25 13:11:28;;;;;;;29.95;15.98;;;;;;;2.53;82.83;100238.34;6249566;28;20072;-73
2021/01/25 13:14:29;;;;;;;31.05;13.98;;;;;;;2.61;81.58;100243.31;6249119;28;20103;-74
2021/01/25 13:17:31;;;;;;;28.42;12.32;;;;;;;2.47;79.57;100245.47;6249540;28;20118;-73
2021/01/25 13:20:32;;;;;;;25.92;12.93;;;;;;;2.51;80.29;100247.09;6258596;28;20055;-73
2021/01/25 13:23:33;;;;;;;26.27;12.13;;;;;;;2.49;79.60;100252.28;6267119;28;20398;-72
2021/01/25 13:26:33;;;;;;;29.45;12.27;;;;;;;2.58;79.81;100252.94;6266818;28;20059;-72
2021/01/25 13:29:34;;;;;;;28.40;13.13;;;;;;;2.37;80.39;100264.78;6255456;28;20058;-73
2021/01/25 13:32:36;;;;;;;25.63;13.43;;;;;;;2.37;80.51;100262.19;6249463;28;20522;-73
2021/01/25 13:35:37;;;;;;;27.60;11.82;;;;;;;2.49;80.61;100265.25;6249624;28;20053;-72
2021/01/25 13:38:38;;;;;;;24.38;12.38;;;;;;;2.60;79.47;100266.72;6248706;28;20049;-73
2021/01/25 13:41:39;;;;;;;35.20;14.20;;;;;;;2.54;79.76;100270.31;6249412;28;20049;-73
2021/01/25 13:44:40;;;;;;;28.75;13.57;;;;;;;2.59;80.24;100273.66;6249113;28;20107;-72
2021/01/25 13:47:42;;;;;;;26.77;13.95;;;;;;;2.44;81.35;100276.66;6249066;28;20140;-74